sensor_id;sensor_type;location;lat;lon;timestamp;temperature;humidity
20370;DHT22;10344;47.592;9.600;2022-08-01T00:00:08;21.20;99.90
20370;DHT22;10344;47.592;9.600;2022-08-01T00:02:34;21.20;99.90
20370;DHT22;10344;47.592;9.600;2022-08-01T00:04:59;21.10;99.90
20370;DHT22;10344;47.592;9.600;2022-08-01T00:07:28;21.10;99.90
20370;DHT22;10344;47.592;9.600;2022-08-01T00:09:53;21.10;99.90
20370;DHT22;10344;47.592;9.600;2022-08-01T00:12:19;21.10;99.90
20370;DHT22;10344;47.592;9.600;2022-08-01T00:14:44;21.00;99.90
20370;DHT22;10344;47.592;9.600;2022-08-01T00:17:10;20.90;99.90
20370;DHT22;10344;47.592;9.600;2022-08-01T00:19:35;20.90;99.90
20370;DHT22;10344;47.592;9.600;2022-08-01T00:22:01;20.80;99.90
20370;DHT22;10344;47.592;9.600;2022-08-01T00:24:27;20.70;99.90
20370;DHT22;10344;47.592;9.600;2022-08-01T00:26:52;20.70;99.90
20370;DHT22;10344;47.592;9.600;2022-08-01T00:29:18;20.60;99.90
20370;DHT22;10344;47.592;9.600;2022-08-01T00:31:44;20.50;99.90
20370;DHT22;10344;47.592;9.600;2022-08-01T00:34:09;20.50;99.90
20370;DHT22;10344;47.592;9.600;2022-08-01T00:36:37;20.40;99.90
20370;DHT22;10344;47.592;9.600;2022-08-01T00:39:03;20.40;99.90
20370;DHT22;10344;47.592;9.600;2022-08-01T00:41:28;20.30;99.90
20370;DHT22;10344;47.592;9.600;2022-08-01T00:43:54;20.20;99.90
20370;DHT22;10344;47.592;9.600;2022-08-01T00:46:20;20.20;99.90
20370;DHT22;10344;47.592;9.600;2022-08-01T00:48:45;20.10;99.90
20370;DHT22;10344;47.592;9.600;2022-08-01T00:51:11;20.10;99.90
20370;DHT22;10344;47.592;9.600;2022-08-01T00:53:38;20.00;99.90
20370;DHT22;10344;47.592;9.600;2022-08-01T00:56:04;20.00;99.90
20370;DHT22;10344;47.592;9.600;2022-08-01T00:58:29;20.00;99.90
20370;DHT22;10344;47.592;9.600;2022-08-01T01:00:57;19.90;99.90
20370;DHT22;10344;47.592;9.600;2022-08-01T01:03:23;19.90;99.90
20370;DHT22;10344;47.592;9.600;2022-08-01T01:05:54;19.80;99.90
20370;DHT22;10344;47.592;9.600;2022-08-01T01:08:22;19.80;99.90
20370;DHT22;10344;47.592;9.600;2022-08-01T01:10:54;19.80;99.90
20370;DHT22;10344;47.592;9.600;2022-08-01T01:15:51;19.80;99.90
20370;DHT22;10344;47.592;9.600;2022-08-01T01:18:22;19.80;99.90
20370;DHT22;10344;47.592;9.600;2022-08-01T01:20:53;19.80;99.90
20370;DHT22;10344;47.592;9.600;2022-08-01T01:26:01;19.80;99.90
20370;DHT22;10344;47.592;9.600;2022-08-01T01:28:33;19.70;99.90
20370;DHT22;10344;47.592;9.600;2022-08-01T01:31:02;19.70;99.90
20370;DHT22;10344;47.592;9.600;2022-08-01T01:33:29;19.60;99.90
20370;DHT22;10344;47.592;9.600;2022-08-01T01:36:05;19.50;99.90
20370;DHT22;10344;47.592;9.600;2022-08-01T01:38:34;19.50;99.90
20370;DHT22;10344;47.592;9.600;2022-08-01T01:41:02;19.50;99.90
20370;DHT22;10344;47.592;9.600;2022-08-01T01:43:29;19.50;99.90
20370;DHT22;10344;47.592;9.600;2022-08-01T01:45:54;19.40;99.90
20370;DHT22;10344;47.592;9.600;2022-08-01T01:48:21;19.40;99.90
20370;DHT22;10344;47.592;9.600;2022-08-01T01:50:48;19.40;99.90
20370;DHT22;10344;47.592;9.600;2022-08-01T01:53:15;19.40;99.90
20370;DHT22;10344;47.592;9.600;2022-08-01T01:55:41;19.50;99.90
20370;DHT22;10344;47.592;9.600;2022-08-01T01:58:11;19.50;99.90
20370;DHT22;10344;47.592;9.600;2022-08-01T02:00:37;19.40;99.90
20370;DHT22;10344;47.592;9.600;2022-08-01T02:03:06;19.40;99.90
20370;DHT22;10344;47.592;9.600;2022-08-01T02:05:32;19.40;99.90
20370;DHT22;10344;47.592;9.600;2022-08-01T02:08:00;19.30;99.90
20370;DHT22;10344;47.592;9.600;2022-08-01T02:10:26;19.30;99.90
20370;DHT22;10344;47.592;9.600;2022-08-01T02:12:52;19.20;99.90
20370;DHT22;10344;47.592;9.600;2022-08-01T02:15:18;19.10;99.90
20370;DHT22;10344;47.592;9.600;2022-08-01T02:17:46;19.10;99.90
20370;DHT22;10344;47.592;9.600;2022-08-01T02:20:13;19.10;99.90
20370;DHT22;10344;47.592;9.600;2022-08-01T02:22:49;19.10;99.90
20370;DHT22;10344;47.592;9.600;2022-08-01T02:25:27;19.00;99.90
20370;DHT22;10344;47.592;9.600;2022-08-01T02:27:58;19.00;99.90
20370;DHT22;10344;47.592;9.600;2022-08-01T02:30:33;18.90;99.90
20370;DHT22;10344;47.592;9.600;2022-08-01T02:33:09;18.90;99.90
20370;DHT22;10344;47.592;9.600;2022-08-01T02:35:38;18.90;99.90
20370;DHT22;10344;47.592;9.600;2022-08-01T02:38:09;18.90;99.90
20370;DHT22;10344;47.592;9.600;2022-08-01T02:40:38;18.90;99.90
20370;DHT22;10344;47.592;9.600;2022-08-01T02:43:05;18.90;99.90
20370;DHT22;10344;47.592;9.600;2022-08-01T02:45:31;18.90;99.90
20370;DHT22;10344;47.592;9.600;2022-08-01T02:48:04;18.90;99.90
20370;DHT22;10344;47.592;9.600;2022-08-01T02:50:34;18.90;99.90
20370;DHT22;10344;47.592;9.600;2022-08-01T02:53:01;18.90;99.90
20370;DHT22;10344;47.592;9.600;2022-08-01T02:55:29;18.90;99.90
20370;DHT22;10344;47.592;9.600;2022-08-01T02:57:56;18.90;99.90
20370;DHT22;10344;47.592;9.600;2022-08-01T03:00:23;18.90;99.90
20370;DHT22;10344;47.592;9.600;2022-08-01T03:02:51;18.90;99.90
20370;DHT22;10344;47.592;9.600;2022-08-01T03:05:19;18.80;99.90
20370;DHT22;10344;47.592;9.600;2022-08-01T03:07:47;18.80;99.90
20370;DHT22;10344;47.592;9.600;2022-08-01T03:10:14;18.90;99.90
20370;DHT22;10344;47.592;9.600;2022-08-01T03:12:42;18.90;99.90
20370;DHT22;10344;47.592;9.600;2022-08-01T03:15:10;18.90;99.90
20370;DHT22;10344;47.592;9.600;2022-08-01T03:17:39;18.90;99.90
20370;DHT22;10344;47.592;9.600;2022-08-01T03:20:07;18.90;99.90
20370;DHT22;10344;47.592;9.600;2022-08-01T03:22:34;18.90;99.90
20370;DHT22;10344;47.592;9.600;2022-08-01T03:25:03;18.90;99.90
20370;DHT22;10344;47.592;9.600;2022-08-01T03:27:29;19.00;99.90
20370;DHT22;10344;47.592;9.600;2022-08-01T03:29:57;19.00;99.90
20370;DHT22;10344;47.592;9.600;2022-08-01T03:32:24;19.00;99.90
20370;DHT22;10344;47.592;9.600;2022-08-01T03:34:52;19.00;99.90
20370;DHT22;10344;47.592;9.600;2022-08-01T03:37:36;19.00;99.90
20370;DHT22;10344;47.592;9.600;2022-08-01T03:40:16;18.90;99.90
20370;DHT22;10344;47.592;9.600;2022-08-01T03:42:46;18.90;99.90
20370;DHT22;10344;47.592;9.600;2022-08-01T03:45:21;18.90;99.90
20370;DHT22;10344;47.592;9.600;2022-08-01T03:47:54;18.90;99.90
20370;DHT22;10344;47.592;9.600;2022-08-01T03:50:22;18.90;99.90
20370;DHT22;10344;47.592;9.600;2022-08-01T03:52:51;18.90;99.90
20370;DHT22;10344;47.592;9.600;2022-08-01T03:55:18;18.90;99.90
20370;DHT22;10344;47.592;9.600;2022-08-01T03:57:45;18.90;99.90
20370;DHT22;10344;47.592;9.600;2022-08-01T04:00:11;18.90;99.90
20370;DHT22;10344;47.592;9.600;2022-08-01T04:02:40;19.00;99.90
20370;DHT22;10344;47.592;9.600;2022-08-01T04:05:07;19.00;99.90
20370;DHT22;10344;47.592;9.600;2022-08-01T04:07:33;19.00;99.90
20370;DHT22;10344;47.592;9.600;2022-08-01T04:10:03;19.00;99.90
20370;DHT22;10344;47.592;9.600;2022-08-01T04:12:29;19.10;99.90
20370;DHT22;10344;47.592;9.600;2022-08-01T04:14:58;19.10;99.90
20370;DHT22;10344;47.592;9.600;2022-08-01T04:17:24;19.00;99.90
20370;DHT22;10344;47.592;9.600;2022-08-01T04:19:50;19.10;99.90
20370;DHT22;10344;47.592;9.600;2022-08-01T04:22:16;19.10;99.90
20370;DHT22;10344;47.592;9.600;2022-08-01T04:24:46;19.10;99.90
20370;DHT22;10344;47.592;9.600;2022-08-01T04:27:19;19.10;99.90
20370;DHT22;10344;47.592;9.600;2022-08-01T04:29:48;19.10;99.90
20370;DHT22;10344;47.592;9.600;2022-08-01T04:32:16;19.10;99.90
20370;DHT22;10344;47.592;9.600;2022-08-01T04:34:44;19.10;99.90
20370;DHT22;10344;47.592;9.600;2022-08-01T04:37:13;19.10;99.90
20370;DHT22;10344;47.592;9.600;2022-08-01T04:39:42;19.20;99.90
20370;DHT22;10344;47.592;9.600;2022-08-01T04:42:10;19.30;99.90
20370;DHT22;10344;47.592;9.600;2022-08-01T04:44:36;19.30;99.90
20370;DHT22;10344;47.592;9.600;2022-08-01T04:47:03;19.30;99.90
20370;DHT22;10344;47.592;9.600;2022-08-01T04:49:34;19.30;99.90
20370;DHT22;10344;47.592;9.600;2022-08-01T04:52:00;19.40;99.90
20370;DHT22;10344;47.592;9.600;2022-08-01T04:54:26;19.40;99.90
20370;DHT22;10344;47.592;9.600;2022-08-01T04:56:53;19.40;99.90
20370;DHT22;10344;47.592;9.600;2022-08-01T04:59:21;19.40;99.90
20370;DHT22;10344;47.592;9.600;2022-08-01T05:04:35;19.50;99.90
20370;DHT22;10344;47.592;9.600;2022-08-01T05:07:01;19.50;99.90
20370;DHT22;10344;47.592;9.600;2022-08-01T05:09:27;19.60;99.90
20370;DHT22;10344;47.592;9.600;2022-08-01T05:11:55;19.60;99.90
20370;DHT22;10344;47.592;9.600;2022-08-01T05:14:27;19.60;99.90
20370;DHT22;10344;47.592;9.600;2022-08-01T05:16:56;19.70;99.90
20370;DHT22;10344;47.592;9.600;2022-08-01T05:19:21;19.70;99.90
20370;DHT22;10344;47.592;9.600;2022-08-01T05:21:47;19.80;99.90
20370;DHT22;10344;47.592;9.600;2022-08-01T05:24:15;19.90;99.90
20370;DHT22;10344;47.592;9.600;2022-08-01T05:26:40;20.10;99.90
20370;DHT22;10344;47.592;9.600;2022-08-01T05:29:08;20.20;99.90
20370;DHT22;10344;47.592;9.600;2022-08-01T05:31:36;20.30;99.90
20370;DHT22;10344;47.592;9.600;2022-08-01T05:34:02;20.40;99.90
20370;DHT22;10344;47.592;9.600;2022-08-01T05:36:28;20.50;99.90
20370;DHT22;10344;47.592;9.600;2022-08-01T05:38:53;20.50;99.90
20370;DHT22;10344;47.592;9.600;2022-08-01T05:41:19;20.60;99.90
20370;DHT22;10344;47.592;9.600;2022-08-01T05:43:45;20.60;99.90
20370;DHT22;10344;47.592;9.600;2022-08-01T05:46:10;20.60;99.90
20370;DHT22;10344;47.592;9.600;2022-08-01T05:48:36;20.70;99.90
20370;DHT22;10344;47.592;9.600;2022-08-01T05:51:02;20.70;99.90
20370;DHT22;10344;47.592;9.600;2022-08-01T05:53:28;20.80;99.90
20370;DHT22;10344;47.592;9.600;2022-08-01T05:55:54;20.80;99.90
20370;DHT22;10344;47.592;9.600;2022-08-01T05:58:22;20.90;99.90
20370;DHT22;10344;47.592;9.600;2022-08-01T06:00:48;21.00;99.90
20370;DHT22;10344;47.592;9.600;2022-08-01T06:03:16;21.10;99.90
20370;DHT22;10344;47.592;9.600;2022-08-01T06:05:42;21.20;99.90
20370;DHT22;10344;47.592;9.600;2022-08-01T06:08:07;21.30;99.90
20370;DHT22;10344;47.592;9.600;2022-08-01T06:10:33;21.40;99.90
20370;DHT22;10344;47.592;9.600;2022-08-01T06:12:58;21.50;99.90
20370;DHT22;10344;47.592;9.600;2022-08-01T06:15:28;21.50;99.90
20370;DHT22;10344;47.592;9.600;2022-08-01T06:17:57;21.60;99.90
20370;DHT22;10344;47.592;9.600;2022-08-01T06:20:22;21.80;99.90
20370;DHT22;10344;47.592;9.600;2022-08-01T06:22:48;21.90;99.90
20370;DHT22;10344;47.592;9.600;2022-08-01T06:25:14;22.00;99.90
20370;DHT22;10344;47.592;9.600;2022-08-01T06:27:39;22.10;99.90
20370;DHT22;10344;47.592;9.600;2022-08-01T06:30:05;22.10;99.90
20370;DHT22;10344;47.592;9.600;2022-08-01T06:32:33;22.20;99.90
20370;DHT22;10344;47.592;9.600;2022-08-01T06:34:58;22.40;99.90
20370;DHT22;10344;47.592;9.600;2022-08-01T06:37:29;22.50;99.90
20370;DHT22;10344;47.592;9.600;2022-08-01T06:39:55;22.50;99.90
20370;DHT22;10344;47.592;9.600;2022-08-01T06:42:21;22.50;99.90
20370;DHT22;10344;47.592;9.600;2022-08-01T06:44:46;22.50;99.90
20370;DHT22;10344;47.592;9.600;2022-08-01T06:47:12;22.50;99.90
20370;DHT22;10344;47.592;9.600;2022-08-01T06:49:38;22.60;99.90
20370;DHT22;10344;47.592;9.600;2022-08-01T06:52:04;22.70;99.90
20370;DHT22;10344;47.592;9.600;2022-08-01T06:54:31;22.80;99.90
20370;DHT22;10344;47.592;9.600;2022-08-01T06:56:57;23.20;99.90
20370;DHT22;10344;47.592;9.600;2022-08-01T06:59:23;23.90;99.90
20370;DHT22;10344;47.592;9.600;2022-08-01T07:01:48;24.80;99.90
20370;DHT22;10344;47.592;9.600;2022-08-01T07:04:14;25.50;99.90
20370;DHT22;10344;47.592;9.600;2022-08-01T07:06:39;26.40;99.90
20370;DHT22;10344;47.592;9.600;2022-08-01T07:09:05;27.40;99.90
20370;DHT22;10344;47.592;9.600;2022-08-01T07:11:31;28.00;99.90
20370;DHT22;10344;47.592;9.600;2022-08-01T07:13:56;28.60;99.90
20370;DHT22;10344;47.592;9.600;2022-08-01T07:16:22;29.00;99.90
20370;DHT22;10344;47.592;9.600;2022-08-01T07:18:48;28.60;99.90
20370;DHT22;10344;47.592;9.600;2022-08-01T07:21:14;28.10;99.90
20370;DHT22;10344;47.592;9.600;2022-08-01T07:23:39;28.00;99.90
20370;DHT22;10344;47.592;9.600;2022-08-01T07:26:05;28.10;99.90
20370;DHT22;10344;47.592;9.600;2022-08-01T07:28:33;28.10;99.90
20370;DHT22;10344;47.592;9.600;2022-08-01T07:30:58;28.40;99.90
20370;DHT22;10344;47.592;9.600;2022-08-01T07:33:24;29.20;99.90
20370;DHT22;10344;47.592;9.600;2022-08-01T07:35:49;30.30;99.90
20370;DHT22;10344;47.592;9.600;2022-08-01T07:38:15;31.10;99.90
20370;DHT22;10344;47.592;9.600;2022-08-01T07:40:43;31.70;99.90
20370;DHT22;10344;47.592;9.600;2022-08-01T07:43:09;31.80;99.90
20370;DHT22;10344;47.592;9.600;2022-08-01T07:45:34;32.20;99.90
20370;DHT22;10344;47.592;9.600;2022-08-01T07:48:06;32.80;99.90
20370;DHT22;10344;47.592;9.600;2022-08-01T07:50:32;33.00;99.90
20370;DHT22;10344;47.592;9.600;2022-08-01T07:52:58;33.30;99.90
20370;DHT22;10344;47.592;9.600;2022-08-01T07:55:24;33.60;99.90
20370;DHT22;10344;47.592;9.600;2022-08-01T07:57:49;33.40;99.90
20370;DHT22;10344;47.592;9.600;2022-08-01T08:00:15;33.20;99.90
20370;DHT22;10344;47.592;9.600;2022-08-01T08:02:40;32.60;99.90
20370;DHT22;10344;47.592;9.600;2022-08-01T08:05:06;32.90;99.90
20370;DHT22;10344;47.592;9.600;2022-08-01T08:07:32;33.40;99.90
20370;DHT22;10344;47.592;9.600;2022-08-01T08:09:58;33.20;99.90
20370;DHT22;10344;47.592;9.600;2022-08-01T08:12:23;33.40;99.90
20370;DHT22;10344;47.592;9.600;2022-08-01T08:14:51;33.80;99.90
20370;DHT22;10344;47.592;9.600;2022-08-01T08:17:17;34.00;97.90
20370;DHT22;10344;47.592;9.600;2022-08-01T08:19:42;33.70;98.40
20370;DHT22;10344;47.592;9.600;2022-08-01T08:22:08;33.50;99.10
20370;DHT22;10344;47.592;9.600;2022-08-01T08:24:34;33.20;96.50
20370;DHT22;10344;47.592;9.600;2022-08-01T08:27:01;32.50;98.30
20370;DHT22;10344;47.592;9.600;2022-08-01T08:29:28;32.60;97.80
20370;DHT22;10344;47.592;9.600;2022-08-01T08:31:55;32.50;96.90
20370;DHT22;10344;47.592;9.600;2022-08-01T08:34:21;33.10;95.60
20370;DHT22;10344;47.592;9.600;2022-08-01T08:36:50;32.90;96.40
20370;DHT22;10344;47.592;9.600;2022-08-01T08:39:16;32.60;99.10
20370;DHT22;10344;47.592;9.600;2022-08-01T08:41:42;32.90;99.90
20370;DHT22;10344;47.592;9.600;2022-08-01T08:44:08;32.80;96.30
20370;DHT22;10344;47.592;9.600;2022-08-01T08:46:37;32.40;96.50
20370;DHT22;10344;47.592;9.600;2022-08-01T08:49:07;32.10;96.70
20370;DHT22;10344;47.592;9.600;2022-08-01T08:51:34;32.00;99.80
20370;DHT22;10344;47.592;9.600;2022-08-01T08:53:59;32.60;98.10
20370;DHT22;10344;47.592;9.600;2022-08-01T08:56:25;32.90;95.20
20370;DHT22;10344;47.592;9.600;2022-08-01T08:58:51;32.80;95.90
20370;DHT22;10344;47.592;9.600;2022-08-01T09:01:17;32.50;96.30
20370;DHT22;10344;47.592;9.600;2022-08-01T09:03:43;32.20;96.40
20370;DHT22;10344;47.592;9.600;2022-08-01T09:06:10;32.10;96.80
20370;DHT22;10344;47.592;9.600;2022-08-01T09:08:36;31.50;95.80
20370;DHT22;10344;47.592;9.600;2022-08-01T09:11:02;31.40;97.80
20370;DHT22;10344;47.592;9.600;2022-08-01T09:13:28;31.40;97.50
20370;DHT22;10344;47.592;9.600;2022-08-01T09:15:55;31.30;97.30
20370;DHT22;10344;47.592;9.600;2022-08-01T09:18:36;31.10;99.90
20370;DHT22;10344;47.592;9.600;2022-08-01T09:21:11;31.00;97.10
20370;DHT22;10344;47.592;9.600;2022-08-01T09:26:33;31.10;97.30
20370;DHT22;10344;47.592;9.600;2022-08-01T09:29:02;31.10;97.60
20370;DHT22;10344;47.592;9.600;2022-08-01T09:31:29;31.30;99.10
20370;DHT22;10344;47.592;9.600;2022-08-01T09:33:57;31.20;97.70
20370;DHT22;10344;47.592;9.600;2022-08-01T09:36:27;31.10;97.90
20370;DHT22;10344;47.592;9.600;2022-08-01T09:39:13;31.30;99.90
20370;DHT22;10344;47.592;9.600;2022-08-01T09:41:39;31.60;97.30
20370;DHT22;10344;47.592;9.600;2022-08-01T09:44:05;31.50;97.50
20370;DHT22;10344;47.592;9.600;2022-08-01T09:46:31;31.40;99.80
20370;DHT22;10344;47.592;9.600;2022-08-01T09:49:01;31.10;98.60
20370;DHT22;10344;47.592;9.600;2022-08-01T09:51:36;31.30;98.30
20370;DHT22;10344;47.592;9.600;2022-08-01T09:54:06;31.80;97.00
20370;DHT22;10344;47.592;9.600;2022-08-01T09:56:40;31.10;97.70
20370;DHT22;10344;47.592;9.600;2022-08-01T09:59:08;30.90;97.70
20370;DHT22;10344;47.592;9.600;2022-08-01T10:01:45;30.50;99.50
20370;DHT22;10344;47.592;9.600;2022-08-01T10:04:20;30.50;97.60
20370;DHT22;10344;47.592;9.600;2022-08-01T10:06:48;30.40;98.60
20370;DHT22;10344;47.592;9.600;2022-08-01T10:09:29;30.70;99.40
20370;DHT22;10344;47.592;9.600;2022-08-01T10:11:56;30.40;98.90
20370;DHT22;10344;47.592;9.600;2022-08-01T10:14:24;30.60;98.50
20370;DHT22;10344;47.592;9.600;2022-08-01T10:16:52;30.70;97.90
20370;DHT22;10344;47.592;9.600;2022-08-01T10:19:21;30.70;98.40
20370;DHT22;10344;47.592;9.600;2022-08-01T10:21:47;30.80;99.30
20370;DHT22;10344;47.592;9.600;2022-08-01T10:24:16;31.00;97.60
20370;DHT22;10344;47.592;9.600;2022-08-01T10:26:43;30.80;99.70
20370;DHT22;10344;47.592;9.600;2022-08-01T10:29:10;30.90;98.20
20370;DHT22;10344;47.592;9.600;2022-08-01T10:31:37;30.90;98.80
20370;DHT22;10344;47.592;9.600;2022-08-01T10:34:04;31.10;97.50
20370;DHT22;10344;47.592;9.600;2022-08-01T10:36:31;31.10;99.70
20370;DHT22;10344;47.592;9.600;2022-08-01T10:38:58;30.90;98.70
20370;DHT22;10344;47.592;9.600;2022-08-01T10:41:24;30.70;97.30
20370;DHT22;10344;47.592;9.600;2022-08-01T10:43:50;30.70;99.00
20370;DHT22;10344;47.592;9.600;2022-08-01T10:46:19;30.70;98.40
20370;DHT22;10344;47.592;9.600;2022-08-01T10:49:04;31.10;97.80
20370;DHT22;10344;47.592;9.600;2022-08-01T10:51:30;31.90;97.60
20370;DHT22;10344;47.592;9.600;2022-08-01T10:53:56;32.20;96.60
20370;DHT22;10344;47.592;9.600;2022-08-01T10:56:22;32.60;94.20
20370;DHT22;10344;47.592;9.600;2022-08-01T10:58:49;32.50;96.20
20370;DHT22;10344;47.592;9.600;2022-08-01T11:03:42;32.30;95.70
20370;DHT22;10344;47.592;9.600;2022-08-01T11:06:16;32.10;95.00
20370;DHT22;10344;47.592;9.600;2022-08-01T11:08:53;31.50;96.70
20370;DHT22;10344;47.592;9.600;2022-08-01T11:11:19;31.50;95.80
20370;DHT22;10344;47.592;9.600;2022-08-01T11:18:55;32.30;96.40
20370;DHT22;10344;47.592;9.600;2022-08-01T11:21:21;32.30;94.90
20370;DHT22;10344;47.592;9.600;2022-08-01T11:23:50;32.40;95.90
20370;DHT22;10344;47.592;9.600;2022-08-01T11:26:19;32.50;94.00
20370;DHT22;10344;47.592;9.600;2022-08-01T11:29:11;32.80;92.70
20370;DHT22;10344;47.592;9.600;2022-08-01T11:31:33;32.80;94.20
20370;DHT22;10344;47.592;9.600;2022-08-01T11:34:01;32.80;93.00
20370;DHT22;10344;47.592;9.600;2022-08-01T11:36:29;32.40;95.60
20370;DHT22;10344;47.592;9.600;2022-08-01T11:41:32;32.50;94.80
20370;DHT22;10344;47.592;9.600;2022-08-01T11:44:21;32.60;94.30
20370;DHT22;10344;47.592;9.600;2022-08-01T11:54:34;33.00;93.10
20370;DHT22;10344;47.592;9.600;2022-08-01T11:57:02;32.90;93.70
20370;DHT22;10344;47.592;9.600;2022-08-01T11:59:39;32.90;95.10
20370;DHT22;10344;47.592;9.600;2022-08-01T12:07:24;32.20;94.20
20370;DHT22;10344;47.592;9.600;2022-08-01T12:12:30;32.70;95.90
20370;DHT22;10344;47.592;9.600;2022-08-01T12:14:58;32.80;93.20
20370;DHT22;10344;47.592;9.600;2022-08-01T12:17:34;32.60;93.50
20370;DHT22;10344;47.592;9.600;2022-08-01T12:20:00;32.60;94.10
20370;DHT22;10344;47.592;9.600;2022-08-01T12:22:26;32.30;94.60
20370;DHT22;10344;47.592;9.600;2022-08-01T12:24:52;31.90;93.50
20370;DHT22;10344;47.592;9.600;2022-08-01T12:27:29;31.60;94.10
20370;DHT22;10344;47.592;9.600;2022-08-01T12:29:56;31.30;94.10
20370;DHT22;10344;47.592;9.600;2022-08-01T12:34:53;31.30;96.70
20370;DHT22;10344;47.592;9.600;2022-08-01T12:37:19;31.50;94.30
20370;DHT22;10344;47.592;9.600;2022-08-01T12:39:45;31.70;94.80
20370;DHT22;10344;47.592;9.600;2022-08-01T12:42:13;31.90;92.80
20370;DHT22;10344;47.592;9.600;2022-08-01T12:44:40;31.80;93.90
20370;DHT22;10344;47.592;9.600;2022-08-01T12:47:07;31.90;94.10
20370;DHT22;10344;47.592;9.600;2022-08-01T12:49:35;32.00;93.60
20370;DHT22;10344;47.592;9.600;2022-08-01T12:52:02;32.30;93.50
20370;DHT22;10344;47.592;9.600;2022-08-01T12:54:31;32.50;93.20
20370;DHT22;10344;47.592;9.600;2022-08-01T12:57:23;32.40;93.70
20370;DHT22;10344;47.592;9.600;2022-08-01T12:59:53;32.20;92.20
20370;DHT22;10344;47.592;9.600;2022-08-01T13:02:18;32.00;93.30
20370;DHT22;10344;47.592;9.600;2022-08-01T13:04:50;31.90;92.40
20370;DHT22;10344;47.592;9.600;2022-08-01T13:07:17;31.40;92.50
20370;DHT22;10344;47.592;9.600;2022-08-01T13:09:50;31.20;93.30
20370;DHT22;10344;47.592;9.600;2022-08-01T13:12:15;31.40;92.30
20370;DHT22;10344;47.592;9.600;2022-08-01T13:14:41;31.60;94.60
20370;DHT22;10344;47.592;9.600;2022-08-01T13:17:07;31.80;94.20
20370;DHT22;10344;47.592;9.600;2022-08-01T13:19:43;32.20;94.20
20370;DHT22;10344;47.592;9.600;2022-08-01T13:22:09;32.40;92.30
20370;DHT22;10344;47.592;9.600;2022-08-01T13:24:34;32.60;90.90
20370;DHT22;10344;47.592;9.600;2022-08-01T13:27:02;32.50;92.10
20370;DHT22;10344;47.592;9.600;2022-08-01T13:29:32;32.70;92.40
20370;DHT22;10344;47.592;9.600;2022-08-01T13:31:59;32.90;91.60
20370;DHT22;10344;47.592;9.600;2022-08-01T13:34:32;32.90;91.50
20370;DHT22;10344;47.592;9.600;2022-08-01T13:37:00;32.90;91.60
20370;DHT22;10344;47.592;9.600;2022-08-01T13:39:28;33.00;92.50
20370;DHT22;10344;47.592;9.600;2022-08-01T13:42:09;32.90;92.20
20370;DHT22;10344;47.592;9.600;2022-08-01T13:44:35;32.70;92.90
20370;DHT22;10344;47.592;9.600;2022-08-01T13:47:05;32.50;93.20
20370;DHT22;10344;47.592;9.600;2022-08-01T13:49:30;32.40;93.60
20370;DHT22;10344;47.592;9.600;2022-08-01T13:51:57;32.30;94.40
20370;DHT22;10344;47.592;9.600;2022-08-01T13:54:23;32.40;92.30
20370;DHT22;10344;47.592;9.600;2022-08-01T13:56:49;32.60;93.80
20370;DHT22;10344;47.592;9.600;2022-08-01T13:59:15;32.80;93.80
20370;DHT22;10344;47.592;9.600;2022-08-01T14:01:40;33.00;93.40
20370;DHT22;10344;47.592;9.600;2022-08-01T14:04:06;33.40;92.80
20370;DHT22;10344;47.592;9.600;2022-08-01T14:06:32;33.20;94.30
20370;DHT22;10344;47.592;9.600;2022-08-01T14:08:57;33.10;92.90
20370;DHT22;10344;47.592;9.600;2022-08-01T14:11:23;33.20;92.50
20370;DHT22;10344;47.592;9.600;2022-08-01T14:13:49;33.30;93.30
20370;DHT22;10344;47.592;9.600;2022-08-01T14:16:14;33.30;94.20
20370;DHT22;10344;47.592;9.600;2022-08-01T14:18:40;33.30;94.20
20370;DHT22;10344;47.592;9.600;2022-08-01T14:21:05;33.00;92.40
20370;DHT22;10344;47.592;9.600;2022-08-01T14:23:31;32.90;92.40
20370;DHT22;10344;47.592;9.600;2022-08-01T14:25:57;32.60;93.40
20370;DHT22;10344;47.592;9.600;2022-08-01T14:28:23;32.70;93.60
20370;DHT22;10344;47.592;9.600;2022-08-01T14:30:49;32.80;93.10
20370;DHT22;10344;47.592;9.600;2022-08-01T14:33:15;33.00;91.10
20370;DHT22;10344;47.592;9.600;2022-08-01T14:35:44;33.00;92.20
20370;DHT22;10344;47.592;9.600;2022-08-01T14:38:09;33.00;92.60
20370;DHT22;10344;47.592;9.600;2022-08-01T14:40:35;32.90;90.00
20370;DHT22;10344;47.592;9.600;2022-08-01T14:43:03;32.80;90.90
20370;DHT22;10344;47.592;9.600;2022-08-01T14:45:29;32.70;91.40
20370;DHT22;10344;47.592;9.600;2022-08-01T14:47:54;32.70;88.80
20370;DHT22;10344;47.592;9.600;2022-08-01T14:50:20;32.70;90.80
20370;DHT22;10344;47.592;9.600;2022-08-01T14:52:48;32.60;91.00
20370;DHT22;10344;47.592;9.600;2022-08-01T14:55:14;32.60;91.90
20370;DHT22;10344;47.592;9.600;2022-08-01T14:57:40;32.50;92.10
20370;DHT22;10344;47.592;9.600;2022-08-01T15:00:09;32.40;92.60
20370;DHT22;10344;47.592;9.600;2022-08-01T15:02:41;32.30;92.80
20370;DHT22;10344;47.592;9.600;2022-08-01T15:05:07;32.40;92.60
20370;DHT22;10344;47.592;9.600;2022-08-01T15:07:33;32.60;91.70
20370;DHT22;10344;47.592;9.600;2022-08-01T15:09:59;32.70;91.80
20370;DHT22;10344;47.592;9.600;2022-08-01T15:12:25;32.90;91.80
20370;DHT22;10344;47.592;9.600;2022-08-01T15:14:51;32.90;91.30
20370;DHT22;10344;47.592;9.600;2022-08-01T15:17:23;32.90;91.20
20370;DHT22;10344;47.592;9.600;2022-08-01T15:19:50;32.80;91.80
20370;DHT22;10344;47.592;9.600;2022-08-01T15:22:17;32.80;92.40
20370;DHT22;10344;47.592;9.600;2022-08-01T15:24:43;32.70;91.60
20370;DHT22;10344;47.592;9.600;2022-08-01T15:27:09;32.60;92.90
20370;DHT22;10344;47.592;9.600;2022-08-01T15:29:35;32.60;93.40
20370;DHT22;10344;47.592;9.600;2022-08-01T15:32:01;32.30;90.70
20370;DHT22;10344;47.592;9.600;2022-08-01T15:34:28;32.20;92.40
20370;DHT22;10344;47.592;9.600;2022-08-01T15:36:54;32.10;92.70
20370;DHT22;10344;47.592;9.600;2022-08-01T15:39:19;32.00;92.80
20370;DHT22;10344;47.592;9.600;2022-08-01T15:41:45;31.80;92.70
20370;DHT22;10344;47.592;9.600;2022-08-01T15:44:10;31.90;92.70
20370;DHT22;10344;47.592;9.600;2022-08-01T15:46:36;31.90;93.20
20370;DHT22;10344;47.592;9.600;2022-08-01T15:49:04;32.20;92.60
20370;DHT22;10344;47.592;9.600;2022-08-01T15:51:30;32.20;91.70
20370;DHT22;10344;47.592;9.600;2022-08-01T15:53:57;31.90;91.90
20370;DHT22;10344;47.592;9.600;2022-08-01T15:56:22;31.70;91.80
20370;DHT22;10344;47.592;9.600;2022-08-01T15:58:51;31.20;92.20
20370;DHT22;10344;47.592;9.600;2022-08-01T16:01:17;30.90;93.10
20370;DHT22;10344;47.592;9.600;2022-08-01T16:03:45;30.60;93.60
20370;DHT22;10344;47.592;9.600;2022-08-01T16:06:10;30.40;94.60
20370;DHT22;10344;47.592;9.600;2022-08-01T16:08:36;30.20;94.90
20370;DHT22;10344;47.592;9.600;2022-08-01T16:11:02;30.10;95.80